sensor_id;sensor_type;location;lat;lon;timestamp;P1;durP1;ratioP1;P2;durP2;ratioP2
48871;SDS011;36154;51.674;7.824;2023-02-15T00:01:25;1.40;;;1.30;;
48871;SDS011;36154;51.674;7.824;2023-02-15T00:03:50;1.60;;;1.50;;
48871;SDS011;36154;51.674;7.824;2023-02-15T00:06:16;1.60;;;1.50;;
48871;SDS011;36154;51.674;7.824;2023-02-15T00:08:42;1.42;;;1.33;;
48871;SDS011;36154;51.674;7.824;2023-02-15T00:11:08;1.52;;;1.42;;
48871;SDS011;36154;51.674;7.824;2023-02-15T00:13:35;1.52;;;1.40;;
48871;SDS011;36154;51.674;7.824;2023-02-15T00:16:04;1.88;;;1.58;;
48871;SDS011;36154;51.674;7.824;2023-02-15T00:18:31;1.30;;;1.30;;
48871;SDS011;36154;51.674;7.824;2023-02-15T00:20:56;1.60;;;1.50;;
48871;SDS011;36154;51.674;7.824;2023-02-15T00:23:22;1.40;;;1.33;;
48871;SDS011;36154;51.674;7.824;2023-02-15T00:25:47;1.48;;;1.38;;
48871;SDS011;36154;51.674;7.824;2023-02-15T00:28:13;1.42;;;1.33;;
48871;SDS011;36154;51.674;7.824;2023-02-15T00:30:38;1.85;;;1.48;;
48871;SDS011;36154;51.674;7.824;2023-02-15T00:33:03;1.42;;;1.33;;
48871;SDS011;36154;51.674;7.824;2023-02-15T00:35:28;1.67;;;1.58;;
48871;SDS011;36154;51.674;7.824;2023-02-15T00:37:54;1.52;;;1.42;;
48871;SDS011;36154;51.674;7.824;2023-02-15T00:40:21;1.63;;;1.52;;
48871;SDS011;36154;51.674;7.824;2023-02-15T00:42:46;1.58;;;1.48;;
48871;SDS011;36154;51.674;7.824;2023-02-15T00:45:11;1.30;;;1.30;;
48871;SDS011;36154;51.674;7.824;2023-02-15T00:47:37;1.83;;;1.73;;
48871;SDS011;36154;51.674;7.824;2023-02-15T00:50:02;1.60;;;1.50;;
48871;SDS011;36154;51.674;7.824;2023-02-15T00:52:28;1.33;;;1.23;;
48871;SDS011;36154;51.674;7.824;2023-02-15T00:54:53;1.40;;;1.30;;
48871;SDS011;36154;51.674;7.824;2023-02-15T00:57:19;1.58;;;1.30;;
48871;SDS011;36154;51.674;7.824;2023-02-15T00:59:46;1.40;;;1.40;;
48871;SDS011;36154;51.674;7.824;2023-02-15T01:02:12;1.58;;;1.48;;
48871;SDS011;36154;51.674;7.824;2023-02-15T01:04:37;1.60;;;1.50;;
48871;SDS011;36154;51.674;7.824;2023-02-15T01:07:02;1.23;;;1.23;;
48871;SDS011;36154;51.674;7.824;2023-02-15T01:09:28;1.40;;;1.30;;
48871;SDS011;36154;51.674;7.824;2023-02-15T01:11:54;2.22;;;1.55;;
48871;SDS011;36154;51.674;7.824;2023-02-15T01:14:19;1.33;;;1.30;;
48871;SDS011;36154;51.674;7.824;2023-02-15T01:16:44;1.40;;;1.40;;
48871;SDS011;36154;51.674;7.824;2023-02-15T01:19:10;1.50;;;1.40;;
48871;SDS011;36154;51.674;7.824;2023-02-15T01:21:35;1.13;;;1.13;;
48871;SDS011;36154;51.674;7.824;2023-02-15T01:24:01;2.17;;;1.25;;
48871;SDS011;36154;51.674;7.824;2023-02-15T01:26:26;1.63;;;1.52;;
48871;SDS011;36154;51.674;7.824;2023-02-15T01:28:52;1.73;;;1.63;;
48871;SDS011;36154;51.674;7.824;2023-02-15T01:31:18;1.48;;;1.40;;
48871;SDS011;36154;51.674;7.824;2023-02-15T01:33:45;1.27;;;1.27;;
48871;SDS011;36154;51.674;7.824;2023-02-15T01:36:13;1.40;;;1.35;;
48871;SDS011;36154;51.674;7.824;2023-02-15T01:38:39;1.33;;;1.30;;
48871;SDS011;36154;51.674;7.824;2023-02-15T01:41:05;1.42;;;1.40;;
48871;SDS011;36154;51.674;7.824;2023-02-15T01:43:48;1.20;;;1.20;;
48871;SDS011;36154;51.674;7.824;2023-02-15T01:46:19;1.42;;;1.33;;
48871;SDS011;36154;51.674;7.824;2023-02-15T01:48:48;1.35;;;1.25;;
48871;SDS011;36154;51.674;7.824;2023-02-15T01:51:17;1.50;;;1.40;;
48871;SDS011;36154;51.674;7.824;2023-02-15T01:53:52;1.48;;;1.38;;
48871;SDS011;36154;51.674;7.824;2023-02-15T01:56:23;1.10;;;1.10;;
48871;SDS011;36154;51.674;7.824;2023-02-15T01:58:53;1.10;;;1.10;;
48871;SDS011;36154;51.674;7.824;2023-02-15T02:01:20;1.20;;;1.20;;
48871;SDS011;36154;51.674;7.824;2023-02-15T02:06:28;1.48;;;1.38;;
48871;SDS011;36154;51.674;7.824;2023-02-15T02:08:55;1.38;;;1.27;;
48871;SDS011;36154;51.674;7.824;2023-02-15T02:11:21;1.23;;;1.20;;
48871;SDS011;36154;51.674;7.824;2023-02-15T02:13:47;1.17;;;1.17;;
48871;SDS011;36154;51.674;7.824;2023-02-15T02:19:09;1.45;;;1.35;;
48871;SDS011;36154;51.674;7.824;2023-02-15T02:21:53;1.00;;;1.00;;
48871;SDS011;36154;51.674;7.824;2023-02-15T02:32:46;1.48;;;1.38;;
48871;SDS011;36154;51.674;7.824;2023-02-15T02:36:02;1.13;;;1.13;;
48871;SDS011;36154;51.674;7.824;2023-02-15T02:38:23;1.38;;;1.38;;
48871;SDS011;36154;51.674;7.824;2023-02-15T02:41:12;1.40;;;1.30;;
48871;SDS011;36154;51.674;7.824;2023-02-15T02:46:54;1.33;;;1.23;;
48871;SDS011;36154;51.674;7.824;2023-02-15T02:49:31;1.10;;;1.10;;
48871;SDS011;36154;51.674;7.824;2023-02-15T02:52:00;1.70;;;1.60;;
48871;SDS011;36154;51.674;7.824;2023-02-15T02:54:27;1.70;;;1.60;;
48871;SDS011;36154;51.674;7.824;2023-02-15T02:56:53;1.17;;;1.17;;
48871;SDS011;36154;51.674;7.824;2023-02-15T02:59:29;1.40;;;1.30;;
48871;SDS011;36154;51.674;7.824;2023-02-15T03:02:08;1.20;;;1.20;;
48871;SDS011;36154;51.674;7.824;2023-02-15T03:04:41;1.35;;;1.17;;
48871;SDS011;36154;51.674;7.824;2023-02-15T03:07:19;1.17;;;1.17;;
48871;SDS011;36154;51.674;7.824;2023-02-15T03:09:49;1.25;;;1.25;;
48871;SDS011;36154;51.674;7.824;2023-02-15T03:12:35;1.40;;;1.30;;
48871;SDS011;36154;51.674;7.824;2023-02-15T03:15:05;1.52;;;1.42;;
48871;SDS011;36154;51.674;7.824;2023-02-15T03:17:32;1.33;;;1.23;;
48871;SDS011;36154;51.674;7.824;2023-02-15T03:20:02;1.20;;;1.20;;
48871;SDS011;36154;51.674;7.824;2023-02-15T03:22:36;1.27;;;1.27;;
48871;SDS011;36154;51.674;7.824;2023-02-15T03:27:43;1.23;;;1.20;;
48871;SDS011;36154;51.674;7.824;2023-02-15T03:30:12;1.50;;;1.40;;
48871;SDS011;36154;51.674;7.824;2023-02-15T03:32:40;1.27;;;1.27;;
48871;SDS011;36154;51.674;7.824;2023-02-15T03:35:08;1.30;;;1.20;;
48871;SDS011;36154;51.674;7.824;2023-02-15T03:37:39;1.42;;;1.38;;
48871;SDS011;36154;51.674;7.824;2023-02-15T03:42:59;1.40;;;1.30;;
48871;SDS011;36154;51.674;7.824;2023-02-15T03:45:30;1.58;;;1.30;;
48871;SDS011;36154;51.674;7.824;2023-02-15T03:47:58;1.17;;;1.17;;
48871;SDS011;36154;51.674;7.824;2023-02-15T03:50:29;1.60;;;1.50;;
48871;SDS011;36154;51.674;7.824;2023-02-15T03:53:16;1.30;;;1.30;;
48871;SDS011;36154;51.674;7.824;2023-02-15T03:55:48;1.23;;;1.23;;
48871;SDS011;36154;51.674;7.824;2023-02-15T03:58:17;1.30;;;1.30;;
48871;SDS011;36154;51.674;7.824;2023-02-15T04:01:05;1.25;;;1.25;;
48871;SDS011;36154;51.674;7.824;2023-02-15T04:04:07;1.42;;;1.35;;
48871;SDS011;36154;51.674;7.824;2023-02-15T04:06:38;1.10;;;1.10;;
48871;SDS011;36154;51.674;7.824;2023-02-15T04:09:03;1.27;;;1.27;;
48871;SDS011;36154;51.674;7.824;2023-02-15T04:11:47;1.23;;;1.23;;
48871;SDS011;36154;51.674;7.824;2023-02-15T04:14:13;1.30;;;1.20;;
48871;SDS011;36154;51.674;7.824;2023-02-15T04:16:56;1.25;;;1.25;;
48871;SDS011;36154;51.674;7.824;2023-02-15T04:19:22;1.27;;;1.17;;
48871;SDS011;36154;51.674;7.824;2023-02-15T04:22:06;1.45;;;1.35;;
48871;SDS011;36154;51.674;7.824;2023-02-15T04:27:33;1.20;;;1.20;;
48871;SDS011;36154;51.674;7.824;2023-02-15T04:29:58;1.08;;;1.08;;
48871;SDS011;36154;51.674;7.824;2023-02-15T04:32:24;1.13;;;1.13;;
48871;SDS011;36154;51.674;7.824;2023-02-15T04:34:49;1.17;;;1.17;;
48871;SDS011;36154;51.674;7.824;2023-02-15T04:37:14;1.05;;;1.02;;
48871;SDS011;36154;51.674;7.824;2023-02-15T04:39:39;1.45;;;1.35;;
48871;SDS011;36154;51.674;7.824;2023-02-15T04:42:05;1.10;;;1.10;;
48871;SDS011;36154;51.674;7.824;2023-02-15T04:44:30;1.10;;;1.10;;
48871;SDS011;36154;51.674;7.824;2023-02-15T04:46:55;1.40;;;1.40;;
48871;SDS011;36154;51.674;7.824;2023-02-15T04:49:21;1.17;;;1.10;;
48871;SDS011;36154;51.674;7.824;2023-02-15T04:51:46;1.20;;;1.20;;
48871;SDS011;36154;51.674;7.824;2023-02-15T04:54:11;1.25;;;1.17;;
48871;SDS011;36154;51.674;7.824;2023-02-15T04:56:36;1.40;;;1.30;;
48871;SDS011;36154;51.674;7.824;2023-02-15T04:59:03;1.20;;;1.20;;
48871;SDS011;36154;51.674;7.824;2023-02-15T05:01:29;1.00;;;1.00;;
48871;SDS011;36154;51.674;7.824;2023-02-15T05:03:54;1.00;;;1.00;;
48871;SDS011;36154;51.674;7.824;2023-02-15T05:06:20;1.17;;;1.13;;
48871;SDS011;36154;51.674;7.824;2023-02-15T05:08:45;1.08;;;1.08;;
48871;SDS011;36154;51.674;7.824;2023-02-15T05:11:10;1.10;;;1.10;;
48871;SDS011;36154;51.674;7.824;2023-02-15T05:13:35;1.20;;;1.10;;
48871;SDS011;36154;51.674;7.824;2023-02-15T05:16:01;1.23;;;1.23;;
48871;SDS011;36154;51.674;7.824;2023-02-15T05:18:26;1.05;;;1.05;;
48871;SDS011;36154;51.674;7.824;2023-02-15T05:20:51;1.27;;;1.17;;
48871;SDS011;36154;51.674;7.824;2023-02-15T05:23:17;1.15;;;1.15;;
48871;SDS011;36154;51.674;7.824;2023-02-15T05:25:46;1.02;;;1.02;;
48871;SDS011;36154;51.674;7.824;2023-02-15T05:28:31;0.90;;;0.90;;
48871;SDS011;36154;51.674;7.824;2023-02-15T05:31:02;0.82;;;0.75;;
48871;SDS011;36154;51.674;7.824;2023-02-15T05:33:27;0.90;;;0.90;;
48871;SDS011;36154;51.674;7.824;2023-02-15T05:35:53;1.60;;;1.00;;
48871;SDS011;36154;51.674;7.824;2023-02-15T05:38:18;0.98;;;0.98;;
48871;SDS011;36154;51.674;7.824;2023-02-15T05:40:43;1.20;;;1.20;;
48871;SDS011;36154;51.674;7.824;2023-02-15T05:43:09;1.48;;;1.38;;
48871;SDS011;36154;51.674;7.824;2023-02-15T05:45:34;0.95;;;0.95;;
48871;SDS011;36154;51.674;7.824;2023-02-15T05:47:59;1.35;;;1.25;;
48871;SDS011;36154;51.674;7.824;2023-02-15T05:50:25;0.90;;;0.90;;
48871;SDS011;36154;51.674;7.824;2023-02-15T05:52:51;1.00;;;1.00;;
48871;SDS011;36154;51.674;7.824;2023-02-15T05:55:17;1.10;;;1.10;;
48871;SDS011;36154;51.674;7.824;2023-02-15T05:57:42;0.95;;;0.95;;
48871;SDS011;36154;51.674;7.824;2023-02-15T06:00:07;1.10;;;1.10;;
48871;SDS011;36154;51.674;7.824;2023-02-15T06:02:35;1.08;;;1.08;;
48871;SDS011;36154;51.674;7.824;2023-02-15T06:05:01;1.05;;;1.05;;
48871;SDS011;36154;51.674;7.824;2023-02-15T06:07:26;2.47;;;1.02;;
48871;SDS011;36154;51.674;7.824;2023-02-15T06:09:51;1.10;;;1.00;;
48871;SDS011;36154;51.674;7.824;2023-02-15T06:12:17;1.20;;;1.10;;
48871;SDS011;36154;51.674;7.824;2023-02-15T06:14:42;1.50;;;1.40;;
48871;SDS011;36154;51.674;7.824;2023-02-15T06:17:07;1.20;;;1.20;;
48871;SDS011;36154;51.674;7.824;2023-02-15T06:19:35;1.67;;;1.30;;
48871;SDS011;36154;51.674;7.824;2023-02-15T06:22:00;1.35;;;1.25;;
48871;SDS011;36154;51.674;7.824;2023-02-15T06:24:25;1.15;;;1.10;;
48871;SDS011;36154;51.674;7.824;2023-02-15T06:26:50;1.25;;;1.25;;
48871;SDS011;36154;51.674;7.824;2023-02-15T06:29:16;1.02;;;1.02;;
48871;SDS011;36154;51.674;7.824;2023-02-15T06:31:41;1.20;;;1.10;;
48871;SDS011;36154;51.674;7.824;2023-02-15T06:34:07;2.83;;;1.70;;
48871;SDS011;36154;51.674;7.824;2023-02-15T06:36:32;5.75;;;2.10;;
48871;SDS011;36154;51.674;7.824;2023-02-15T06:38:58;13.38;;;3.33;;
48871;SDS011;36154;51.674;7.824;2023-02-15T06:41:27;13.23;;;3.30;;
48871;SDS011;36154;51.674;7.824;2023-02-15T06:43:52;11.05;;;3.92;;
48871;SDS011;36154;51.674;7.824;2023-02-15T06:46:17;12.82;;;3.90;;
48871;SDS011;36154;51.674;7.824;2023-02-15T06:48:42;13.93;;;3.17;;
48871;SDS011;36154;51.674;7.824;2023-02-15T06:51:08;11.32;;;3.75;;
48871;SDS011;36154;51.674;7.824;2023-02-15T06:53:33;11.50;;;3.63;;
48871;SDS011;36154;51.674;7.824;2023-02-15T06:56:02;12.68;;;3.47;;
48871;SDS011;36154;51.674;7.824;2023-02-15T06:58:31;19.77;;;3.08;;
48871;SDS011;36154;51.674;7.824;2023-02-15T07:00:57;23.08;;;4.72;;
48871;SDS011;36154;51.674;7.824;2023-02-15T07:03:22;14.30;;;3.78;;
48871;SDS011;36154;51.674;7.824;2023-02-15T07:05:47;15.90;;;4.20;;
48871;SDS011;36154;51.674;7.824;2023-02-15T07:08:13;13.27;;;3.97;;
48871;SDS011;36154;51.674;7.824;2023-02-15T07:10:39;11.88;;;5.13;;
48871;SDS011;36154;51.674;7.824;2023-02-15T07:13:09;11.45;;;4.90;;
48871;SDS011;36154;51.674;7.824;2023-02-15T07:15:34;9.70;;;4.50;;
48871;SDS011;36154;51.674;7.824;2023-02-15T07:18:01;9.43;;;4.10;;
48871;SDS011;36154;51.674;7.824;2023-02-15T07:20:27;7.60;;;3.63;;
48871;SDS011;36154;51.674;7.824;2023-02-15T07:22:53;10.48;;;4.13;;
48871;SDS011;36154;51.674;7.824;2023-02-15T07:25:18;10.02;;;3.83;;
48871;SDS011;36154;51.674;7.824;2023-02-15T07:27:44;10.82;;;3.95;;
48871;SDS011;36154;51.674;7.824;2023-02-15T07:30:10;9.98;;;4.03;;
48871;SDS011;36154;51.674;7.824;2023-02-15T07:32:37;9.27;;;3.72;;
48871;SDS011;36154;51.674;7.824;2023-02-15T07:35:23;4.50;;;3.17;;
48871;SDS011;36154;51.674;7.824;2023-02-15T07:37:48;7.28;;;3.38;;
48871;SDS011;36154;51.674;7.824;2023-02-15T07:40:13;8.77;;;3.45;;
48871;SDS011;36154;51.674;7.824;2023-02-15T07:42:39;6.43;;;3.00;;
48871;SDS011;36154;51.674;7.824;2023-02-15T07:45:04;7.85;;;3.05;;
48871;SDS011;36154;51.674;7.824;2023-02-15T07:47:30;6.40;;;3.05;;
48871;SDS011;36154;51.674;7.824;2023-02-15T07:49:55;6.40;;;3.42;;
48871;SDS011;36154;51.674;7.824;2023-02-15T07:52:20;4.45;;;2.40;;
48871;SDS011;36154;51.674;7.824;2023-02-15T07:54:45;7.03;;;3.28;;
48871;SDS011;36154;51.674;7.824;2023-02-15T07:57:11;3.33;;;2.33;;
48871;SDS011;36154;51.674;7.824;2023-02-15T07:59:36;5.68;;;2.80;;
48871;SDS011;36154;51.674;7.824;2023-02-15T08:02:01;5.38;;;2.50;;
48871;SDS011;36154;51.674;7.824;2023-02-15T08:04:26;5.72;;;2.75;;
48871;SDS011;36154;51.674;7.824;2023-02-15T08:06:52;5.30;;;2.92;;
48871;SDS011;36154;51.674;7.824;2023-02-15T08:09:19;4.18;;;2.85;;
48871;SDS011;36154;51.674;7.824;2023-02-15T08:11:44;6.10;;;2.70;;
48871;SDS011;36154;51.674;7.824;2023-02-15T08:14:18;4.72;;;2.45;;
48871;SDS011;36154;51.674;7.824;2023-02-15T08:16:46;2.97;;;2.35;;
48871;SDS011;36154;51.674;7.824;2023-02-15T08:19:17;3.92;;;2.42;;
48871;SDS011;36154;51.674;7.824;2023-02-15T08:21:48;4.78;;;2.20;;
48871;SDS011;36154;51.674;7.824;2023-02-15T08:24:16;4.10;;;2.17;;
48871;SDS011;36154;51.674;7.824;2023-02-15T08:26:44;3.20;;;2.40;;
48871;SDS011;36154;51.674;7.824;2023-02-15T08:29:11;3.08;;;2.05;;
48871;SDS011;36154;51.674;7.824;2023-02-15T08:31:38;4.10;;;2.22;;
48871;SDS011;36154;51.674;7.824;2023-02-15T08:34:05;2.63;;;2.25;;
48871;SDS011;36154;51.674;7.824;2023-02-15T08:36:31;3.70;;;2.10;;
48871;SDS011;36154;51.674;7.824;2023-02-15T08:38:57;3.95;;;1.98;;
48871;SDS011;36154;51.674;7.824;2023-02-15T08:41:25;2.20;;;1.73;;
48871;SDS011;36154;51.674;7.824;2023-02-15T08:43:54;6.88;;;2.08;;
48871;SDS011;36154;51.674;7.824;2023-02-15T08:46:22;4.38;;;1.92;;
48871;SDS011;36154;51.674;7.824;2023-02-15T08:48:48;3.03;;;1.60;;
48871;SDS011;36154;51.674;7.824;2023-02-15T08:53:42;2.38;;;1.67;;
48871;SDS011;36154;51.674;7.824;2023-02-15T08:56:14;2.80;;;1.80;;
48871;SDS011;36154;51.674;7.824;2023-02-15T08:58:40;2.83;;;1.90;;
48871;SDS011;36154;51.674;7.824;2023-02-15T09:01:13;1.95;;;1.70;;
48871;SDS011;36154;51.674;7.824;2023-02-15T09:03:43;1.83;;;1.63;;
48871;SDS011;36154;51.674;7.824;2023-02-15T09:06:09;2.47;;;1.83;;
48871;SDS011;36154;51.674;7.824;2023-02-15T09:08:35;3.00;;;1.73;;
48871;SDS011;36154;51.674;7.824;2023-02-15T09:11:05;2.90;;;1.60;;
48871;SDS011;36154;51.674;7.824;2023-02-15T09:13:35;15.00;;;2.03;;
48871;SDS011;36154;51.674;7.824;2023-02-15T09:16:04;1.55;;;1.33;;
48871;SDS011;36154;51.674;7.824;2023-02-15T09:18:32;1.50;;;1.40;;
48871;SDS011;36154;51.674;7.824;2023-02-15T09:21:20;2.50;;;1.25;;
48871;SDS011;36154;51.674;7.824;2023-02-15T09:23:49;1.25;;;1.20;;
48871;SDS011;36154;51.674;7.824;2023-02-15T09:26:17;1.30;;;1.20;;
48871;SDS011;36154;51.674;7.824;2023-02-15T09:28:46;1.50;;;1.40;;
48871;SDS011;36154;51.674;7.824;2023-02-15T09:31:14;1.83;;;1.30;;
48871;SDS011;36154;51.674;7.824;2023-02-15T09:33:42;2.15;;;1.20;;
48871;SDS011;36154;51.674;7.824;2023-02-15T09:36:15;2.30;;;1.25;;
48871;SDS011;36154;51.674;7.824;2023-02-15T09:38:46;1.23;;;1.05;;
48871;SDS011;36154;51.674;7.824;2023-02-15T09:41:16;2.38;;;1.50;;
48871;SDS011;36154;51.674;7.824;2023-02-15T09:43:53;1.30;;;1.20;;
48871;SDS011;36154;51.674;7.824;2023-02-15T09:46:50;1.65;;;0.95;;
48871;SDS011;36154;51.674;7.824;2023-02-15T09:58:08;1.40;;;1.30;;
48871;SDS011;36154;51.674;7.824;2023-02-15T10:00:57;1.50;;;1.40;;
48871;SDS011;36154;51.674;7.824;2023-02-15T10:07:05;1.27;;;1.17;;
48871;SDS011;36154;51.674;7.824;2023-02-15T10:16:15;1.02;;;1.02;;
48871;SDS011;36154;51.674;7.824;2023-02-15T10:23:52;19.60;;;11.82;;
48871;SDS011;36154;51.674;7.824;2023-02-15T10:26:24;27.33;;;13.20;;
48871;SDS011;36154;51.674;7.824;2023-02-15T10:31:38;14.40;;;9.10;;
48871;SDS011;36154;51.674;7.824;2023-02-15T10:47:17;6.63;;;4.75;;
48871;SDS011;36154;51.674;7.824;2023-02-15T10:50:20;8.02;;;5.75;;
48871;SDS011;36154;51.674;7.824;2023-02-15T10:55:45;9.65;;;4.28;;
48871;SDS011;36154;51.674;7.824;2023-02-15T11:06:32;3.58;;;3.20;;
48871;SDS011;36154;51.674;7.824;2023-02-15T11:09:01;7.05;;;3.70;;
48871;SDS011;36154;51.674;7.824;2023-02-15T11:11:31;3.40;;;3.10;;
48871;SDS011;36154;51.674;7.824;2023-02-15T11:14:01;3.65;;;2.83;;
48871;SDS011;36154;51.674;7.824;2023-02-15T11:16:32;3.10;;;2.83;;
48871;SDS011;36154;51.674;7.824;2023-02-15T11:19:00;3.42;;;2.45;;
48871;SDS011;36154;51.674;7.824;2023-02-15T11:21:34;3.83;;;2.45;;
48871;SDS011;36154;51.674;7.824;2023-02-15T11:24:09;3.05;;;2.33;;
48871;SDS011;36154;51.674;7.824;2023-02-15T11:26:47;2.15;;;2.00;;
48871;SDS011;36154;51.674;7.824;2023-02-15T11:29:36;2.50;;;2.30;;
48871;SDS011;36154;51.674;7.824;2023-02-15T11:32:17;2.28;;;2.17;;
48871;SDS011;36154;51.674;7.824;2023-02-15T11:34:51;2.58;;;2.10;;
48871;SDS011;36154;51.674;7.824;2023-02-15T11:37:23;1.90;;;1.80;;
48871;SDS011;36154;51.674;7.824;2023-02-15T11:39:56;1.90;;;1.80;;
48871;SDS011;36154;51.674;7.824;2023-02-15T11:42:22;2.80;;;2.22;;
48871;SDS011;36154;51.674;7.824;2023-02-15T11:47:50;1.83;;;1.73;;
48871;SDS011;36154;51.674;7.824;2023-02-15T11:50:23;2.25;;;1.90;;
48871;SDS011;36154;51.674;7.824;2023-02-15T11:52:56;2.00;;;1.50;;
48871;SDS011;36154;51.674;7.824;2023-02-15T11:55:25;1.75;;;1.65;;
48871;SDS011;36154;51.674;7.824;2023-02-15T12:00:38;1.90;;;1.40;;
48871;SDS011;36154;51.674;7.824;2023-02-15T12:03:10;2.25;;;1.50;;
48871;SDS011;36154;51.674;7.824;2023-02-15T12:05:44;1.50;;;1.40;;
48871;SDS011;36154;51.674;7.824;2023-02-15T12:08:19;4.75;;;1.50;;
48871;SDS011;36154;51.674;7.824;2023-02-15T12:13:27;1.40;;;1.30;;
48871;SDS011;36154;51.674;7.824;2023-02-15T12:15:54;1.40;;;1.30;;
48871;SDS011;36154;51.674;7.824;2023-02-15T12:21:14;1.70;;;1.42;;
48871;SDS011;36154;51.674;7.824;2023-02-15T12:23:50;1.50;;;1.40;;
48871;SDS011;36154;51.674;7.824;2023-02-15T12:26:34;1.63;;;1.30;;
48871;SDS011;36154;51.674;7.824;2023-02-15T12:29:00;2.05;;;1.40;;
48871;SDS011;36154;51.674;7.824;2023-02-15T12:31:41;1.50;;;1.40;;
48871;SDS011;36154;51.674;7.824;2023-02-15T12:34:53;1.67;;;1.58;;
48871;SDS011;36154;51.674;7.824;2023-02-15T12:37:09;1.73;;;1.58;;
48871;SDS011;36154;51.674;7.824;2023-02-15T12:39:40;1.50;;;1.40;;
48871;SDS011;36154;51.674;7.824;2023-02-15T12:42:17;2.67;;;1.45;;
48871;SDS011;36154;51.674;7.824;2023-02-15T12:45:01;1.65;;;1.48;;
48871;SDS011;36154;51.674;7.824;2023-02-15T12:52:43;1.67;;;1.33;;
48871;SDS011;36154;51.674;7.824;2023-02-15T12:55:11;1.55;;;1.38;;
48871;SDS011;36154;51.674;7.824;2023-02-15T12:57:45;1.67;;;1.58;;
48871;SDS011;36154;51.674;7.824;2023-02-15T13:02:44;1.40;;;1.20;;
48871;SDS011;36154;51.674;7.824;2023-02-15T13:08:10;1.38;;;1.27;;
48871;SDS011;36154;51.674;7.824;2023-02-15T13:10:43;2.72;;;1.25;;
48871;SDS011;36154;51.674;7.824;2023-02-15T13:13:20;1.60;;;1.17;;
48871;SDS011;36154;51.674;7.824;2023-02-15T13:15:52;1.38;;;1.27;;
48871;SDS011;36154;51.674;7.824;2023-02-15T13:20:55;2.13;;;1.40;;
48871;SDS011;36154;51.674;7.824;2023-02-15T13:23:27;1.40;;;1.30;;
48871;SDS011;36154;51.674;7.824;2023-02-15T13:25:54;1.38;;;1.27;;
48871;SDS011;36154;51.674;7.824;2023-02-15T13:28:24;1.75;;;1.40;;
48871;SDS011;36154;51.674;7.824;2023-02-15T13:30:57;2.03;;;1.50;;
48871;SDS011;36154;51.674;7.824;2023-02-15T13:33:28;2.55;;;1.40;;
48871;SDS011;36154;51.674;7.824;2023-02-15T13:39:06;3.15;;;1.63;;
48871;SDS011;36154;51.674;7.824;2023-02-15T13:41:46;3.35;;;1.98;;
48871;SDS011;36154;51.674;7.824;2023-02-15T13:46:45;2.97;;;1.80;;
48871;SDS011;36154;51.674;7.824;2023-02-15T14:00:11;5.38;;;1.55;;
48871;SDS011;36154;51.674;7.824;2023-02-15T14:14:39;5.05;;;1.70;;
48871;SDS011;36154;51.674;7.824;2023-02-15T14:17:14;3.85;;;1.50;;
48871;SDS011;36154;51.674;7.824;2023-02-15T14:20:03;2.92;;;1.65;;
48871;SDS011;36154;51.674;7.824;2023-02-15T14:23:45;6.97;;;1.92;;
48871;SDS011;36154;51.674;7.824;2023-02-15T14:25:45;7.22;;;2.05;;
48871;SDS011;36154;51.674;7.824;2023-02-15T14:31:00;2.95;;;1.60;;
48871;SDS011;36154;51.674;7.824;2023-02-15T14:33:31;4.80;;;1.65;;
48871;SDS011;36154;51.674;7.824;2023-02-15T14:36:02;2.15;;;1.83;;
48871;SDS011;36154;51.674;7.824;2023-02-15T14:46:31;7.53;;;1.73;;
48871;SDS011;36154;51.674;7.824;2023-02-15T14:49:05;4.13;;;1.90;;
48871;SDS011;36154;51.674;7.824;2023-02-15T14:54:06;4.03;;;1.83;;
48871;SDS011;36154;51.674;7.824;2023-02-15T14:56:32;2.60;;;2.38;;
48871;SDS011;36154;51.674;7.824;2023-02-15T14:58:58;5.00;;;2.28;;
48871;SDS011;36154;51.674;7.824;2023-02-15T15:01:27;1.98;;;1.80;;
48871;SDS011;36154;51.674;7.824;2023-02-15T15:03:55;4.93;;;2.03;;
48871;SDS011;36154;51.674;7.824;2023-02-15T15:06:29;5.15;;;2.08;;
48871;SDS011;36154;51.674;7.824;2023-02-15T15:09:00;3.72;;;1.60;;
48871;SDS011;36154;51.674;7.824;2023-02-15T15:11:40;2.10;;;1.63;;
48871;SDS011;36154;51.674;7.824;2023-02-15T15:14:13;3.50;;;1.92;;
48871;SDS011;36154;51.674;7.824;2023-02-15T15:17:05;1.92;;;1.50;;
48871;SDS011;36154;51.674;7.824;2023-02-15T15:22:18;2.97;;;1.80;;
48871;SDS011;36154;51.674;7.824;2023-02-15T15:43:31;1.30;;;1.20;;
48871;SDS011;36154;51.674;7.824;2023-02-15T15:49:21;4.32;;;1.30;;
48871;SDS011;36154;51.674;7.824;2023-02-15T15:51:49;1.50;;;1.40;;
48871;SDS011;36154;51.674;7.824;2023-02-15T15:56:47;3.47;;;1.20;;
48871;SDS011;36154;51.674;7.824;2023-02-15T15:59:19;1.48;;;1.10;;
48871;SDS011;36154;51.674;7.824;2023-02-15T16:01:48;2.17;;;1.02;;
48871;SDS011;36154;51.674;7.824;2023-02-15T16:04:30;1.70;;;1.05;;
48871;SDS011;36154;51.674;7.824;2023-02-15T16:06:58;0.80;;;0.75;;
48871;SDS011;36154;51.674;7.824;2023-02-15T16:09:58;2.30;;;1.35;;
48871;SDS011;36154;51.674;7.824;2023-02-15T16:12:26;1.83;;;0.90;;
48871;SDS011;36154;51.674;7.824;2023-02-15T16:14:54;1.55;;;1.27;;
48871;SDS011;36154;51.674;7.824;2023-02-15T16:17:22;1.40;;;1.30;;
48871;SDS011;36154;51.674;7.824;2023-02-15T16:19:57;4.83;;;1.37;;
48871;SDS011;36154;51.674;7.824;2023-02-15T16:22:26;1.48;;;1.02;;
48871;SDS011;36154;51.674;7.824;2023-02-15T16:27:40;0.98;;;0.90;;
48871;SDS011;36154;51.674;7.824;2023-02-15T16:30:40;2.33;;;1.10;;
48871;SDS011;36154;51.674;7.824;2023-02-15T16:35:31;2.15;;;1.00;;
48871;SDS011;36154;51.674;7.824;2023-02-15T16:37:57;2.10;;;0.80;;
48871;SDS011;36154;51.674;7.824;2023-02-15T16:42:47;1.08;;;1.00;;
48871;SDS011;36154;51.674;7.824;2023-02-15T16:45:13;0.95;;;0.80;;
48871;SDS011;36154;51.674;7.824;2023-02-15T16:47:44;1.17;;;1.08;;
48871;SDS011;36154;51.674;7.824;2023-02-15T16:50:16;0.98;;;0.93;;
48871;SDS011;36154;51.674;7.824;2023-02-15T16:52:43;0.98;;;0.77;;
48871;SDS011;36154;51.674;7.824;2023-02-15T16:55:23;1.73;;;1.00;;
48871;SDS011;36154;51.674;7.824;2023-02-15T16:57:50;1.00;;;0.93;;
48871;SDS011;36154;51.674;7.824;2023-02-15T17:00:21;2.30;;;1.10;;
48871;SDS011;36154;51.674;7.824;2023-02-15T17:02:53;1.17;;;0.95;;
48871;SDS011;36154;51.674;7.824;2023-02-15T17:05:23;0.88;;;0.88;;
48871;SDS011;36154;51.674;7.824;2023-02-15T17:07:50;1.10;;;0.90;;
48871;SDS011;36154;51.674;7.824;2023-02-15T17:10:29;1.58;;;1.02;;
48871;SDS011;36154;51.674;7.824;2023-02-15T17:13:14;0.98;;;0.88;;
48871;SDS011;36154;51.674;7.824;2023-02-15T17:15:41;1.17;;;0.90;;
48871;SDS011;36154;51.674;7.824;2023-02-15T17:18:22;1.02;;;0.98;;
48871;SDS011;36154;51.674;7.824;2023-02-15T17:20:50;0.90;;;0.90;;
48871;SDS011;36154;51.674;7.824;2023-02-15T17:26:50;0.88;;;0.80;;
48871;SDS011;36154;51.674;7.824;2023-02-15T17:29:40;1.77;;;0.95;;
48871;SDS011;36154;51.674;7.824;2023-02-15T17:31:54;1.52;;;1.35;;
48871;SDS011;36154;51.674;7.824;2023-02-15T17:37:14;2.00;;;1.10;;
48871;SDS011;36154;51.674;7.824;2023-02-15T17:39:49;3.55;;;1.10;;
48871;SDS011;36154;51.674;7.824;2023-02-15T17:42:15;1.48;;;1.38;;
48871;SDS011;36154;51.674;7.824;2023-02-15T17:44:40;5.18;;;1.45;;
48871;SDS011;36154;51.674;7.824;2023-02-15T17:47:06;1.38;;;1.27;;
48871;SDS011;36154;51.674;7.824;2023-02-15T17:49:31;1.13;;;1.00;;
48871;SDS011;36154;51.674;7.824;2023-02-15T17:52:02;1.98;;;1.05;;
48871;SDS011;36154;51.674;7.824;2023-02-15T17:54:28;1.48;;;0.90;;
48871;SDS011;36154;51.674;7.824;2023-02-15T17:57:12;1.40;;;1.30;;
48871;SDS011;36154;51.674;7.824;2023-02-15T17:59:39;1.75;;;1.00;;
48871;SDS011;36154;51.674;7.824;2023-02-15T18:02:23;2.45;;;0.90;;
48871;SDS011;36154;51.674;7.824;2023-02-15T18:05:11;1.30;;;1.20;;
48871;SDS011;36154;51.674;7.824;2023-02-15T18:07:57;0.80;;;0.80;;
48871;SDS011;36154;51.674;7.824;2023-02-15T18:10:41;1.30;;;1.20;;
48871;SDS011;36154;51.674;7.824;2023-02-15T18:15:50;1.00;;;1.00;;